WEATHER DATA

YESTERDAY
Time Temp. Dewp. Hum. Bar.
00:02 12.4 9.4 82 1015.6
00:11 12.4 9.4 82 1015.6
00:32 12.4 9.4 82 1015.4
00:42 12.4 9.4 82 1015
00:51 12.3 9.3 82 1014.8
01:12 12.2 9.2 82 1014.9
01:22 12.2 9.2 82 1014.8
01:32 12.2 9.2 82 1014.6
01:42 12.2 9.2 82 1014.3
01:52 12.2 9.2 82 1014.1
02:02 12.1 9.1 82 1014.2
02:13 12.2 9.2 82 1014.1
02:22 12.2 9.2 82 1014
02:32 12.2 9.2 82 1013.8
02:43 12.2 9.2 82 1013.5
02:52 12.2 9.4 83 1013.4
03:02 12.2 9.4 83 1013
03:12 12.1 9.3 83 1012.5
03:23 12.1 9.3 83 1012.6
03:32 12.1 9.3 83 1012.2
03:42 12.1 9.3 83 1012
03:53 12.1 9.3 83 1012
04:03 12 9.2 83 1011.6
04:12 12 9.2 83 1011.4
04:23 12 9.2 83 1011.3
04:33 12 9.2 83 1011.1
04:43 12 9.2 83 1011.1
04:52 12 9.2 83 1010.9
05:03 12 9.2 83 1010.7
05:13 12 9.2 83 1010.4
05:23 12 9.2 83 1010.3
05:33 11.9 9.1 83 1010.1
05:43 11.9 9.1 83 1009.8
05:53 11.9 9.1 83 1009.8
06:03 11.9 9.1 83 1009.8
06:13 11.9 9.1 83 1009.5
06:23 11.9 9.1 83 1009.2
06:33 11.9 9.1 83 1009.1
06:44 11.9 9.1 83 1009
06:53 11.9 9.1 83 1009
07:03 11.9 9.3 84 1008.6
07:13 12 9.4 84 1008.6
07:24 12 9.4 84 1008.4
07:33 12 9.4 84 1008.4
07:43 12 9.4 84 1008.4
07:54 12 9.4 84 1008.1
08:03 12 9.4 84 1008.2
08:13 12.1 9.5 84 1008
08:23 12.1 9.5 84 1007.9
08:34 12.2 9.6 84 1007.8
08:44 12.2 9.6 84 1007.8
08:53 12.2 9.6 84 1007.7
09:04 12.3 9.7 84 1007.6
09:14 12.4 9.8 84 1007.5
09:24 12.5 9.9 84 1007.4
09:34 12.5 9.9 84 1007.5
09:44 12.6 10 84 1007.6
09:54 12.7 10.1 84 1007.7
10:04 12.8 10.2 84 1007.5
10:15 12.9 10.3 84 1007.5
10:24 13.1 10.5 84 1007.4
10:44 13.3 10.7 84 1007
10:55 13.4 10.8 84 1006.8
11:05 13.5 10.9 84 1006.7
11:14 13.6 11 84 1006.6
11:25 13.7 11 84 1006.3
11:35 13.8 11.1 84 1006.1
11:45 14 11.3 84 1005.9
11:55 14.1 11.4 84 1005.9
12:05 14.2 11.5 84 1005.6
12:15 14.3 11.6 84 1005.3
12:25 14.4 11.7 84 1004.9
12:36 14.7 12 84 1004.6
12:45 14.8 12.1 84 1004.4
12:55 14.8 12.1 84 1004
13:05 14.8 12.1 84 1003.8
13:16 14.8 12.1 84 1003.7
13:35 14.6 11.9 84 1003.3
13:46 14.6 11.9 84 1003.1
13:56 14.5 11.8 84 1002.6
14:06 14.4 11.7 84 1002
14:16 14.3 11.6 84 1003
14:26 14.2 11.5 84 1002
14:36 14.1 11.4 84 1001.7
14:46 14 11.3 84 1002.3
14:57 13.9 11.2 84 1003.4
15:07 13.8 11.1 84 1004.1
15:16 13.6 11 84 1003.6
15:26 13.5 10.9 84 1004
15:37 13.3 10.7 84 1004.5
15:47 13.3 10.7 84 1004.7
15:57 13.3 10.7 84 1003.8
16:07 13.3 10.7 84 1004.2
16:17 13.3 10.7 84 1004.6
16:27 13.3 10.7 84 1004.9
16:37 13.2 10.6 84 1005.1
16:48 13.2 10.6 84 1005.6
16:58 13.1 10.5 84 1006.3
17:07 12.9 10.3 84 1006.6
17:18 12.8 10.2 84 1006.8
17:28 12.6 10 84 1007
17:38 12.5 9.9 84 1007.4
17:48 12.4 9.8 84 1007.5
17:58 12.3 9.7 84 1007.9
18:08 12.3 9.7 84 1008.3
18:18 12.2 9.6 84 1009.1
18:28 12.2 9.6 84 1009.3
18:39 12.1 9.5 84 1009.7
18:48 12 9.4 84 1010
18:58 11.9 9.3 84 1010.7
19:09 11.9 9.3 84 1011.1
19:19 11.7 9.1 84 1011.6
19:29 11.5 8.9 84 1012.1
19:39 11.4 8.8 84 1012.5
19:49 11.3 8.7 84 1012.9
19:59 11.1 8.5 84 1013.2
20:09 11.1 8.5 84 1013.7
20:19 11 8.4 84 1014.1
20:29 10.9 8.3 84 1014.7
20:39 10.9 8.3 84 1015
20:49 10.7 8.1 84 1015.2
21:00 10.7 8.1 84 1015.6
21:10 10.7 8.1 84 1015.9
21:19 10.7 8.1 84 1016.1
21:30 10.7 8.1 84 1016.4
21:40 10.6 8 84 1016.9
21:50 10.6 8 84 1017.2
22:00 10.6 8 84 1017.4
22:10 10.6 8 84 1017.5
22:20 10.6 8 84 1017.8
22:30 10.6 8 84 1018.2
22:41 10.6 8 84 1018.6
22:50 10.6 8 84 1018.9
23:00 10.6 8 84 1019.3
23:10 10.5 7.9 84 1019.4
23:21 10.5 7.9 84 1019.6
23:31 10.6 8 84 1019.9
23:41 10.5 7.9 84 1020
23:51 10.5 7.9 84 1020.3

DAY STATISTIC

2018-09-23
TEMPERATURE
AVERAGE
12.4
HIGH
14.8
12:45
LOW
10.5
23:10
PRESSURE
AVERAGE
1010.0
HIGH
1020.3
23:51
LOW
1001.7
14:36
DEWPOINT
AVERAGE
9.7
HIGH
12.1
12:45
LOW
7.9
23:10
HUMIDITY
AVERAGE
84
HIGH
84
07:03
LOW
82
00:02
TEMPERATURE (°C)
LOW
10.5
HIGH
14.8
AVERAGE
12.4
PRESSURE (hpa)
LOW
1001.7
HIGH
1020.3
AVERAGE
1010.0
DEVICE